Weather observations for the past three days for
Telluride, Telluride Regional Airport
Imperial (Metric)
Date Time (mdt) Wind (mph) Vis. (mi.) Weather Sky Cond. Temperature (ºF) Relative Humidity Wind Chill (°F) Heat Index (°F) Pressure Precipitation (in)
Air Dwpt 6 hour altimeter (in) sea level (mb) 1 hr 3 hr 6 hr
Max. Min.
09 11:35 W 13 G 17 10.00 Overcast BKN090 OVC110 55.4 23 28% 30.28 0.0
09 11:15 W 15 G 18 10.00 Overcast OVC100 55.4 23 28% 30.28 0.0
09 10:55 W 7 G 16 10.00 Mostly Cloudy BKN100 55.4 24.8 31% 30.27 0.0
09 10:35 W 13 G 16 10.00 Fair CLR 55.4 23 28% 30.27 0.0
09 10:15 W 12 10.00 Fair CLR 55.4 23 28% 30.27 0.0
09 09:55 W 7 10.00 Fair CLR 53.6 23 30% 30.27 0.0
09 09:35 W 8 10.00 Partly Cloudy SCT100 53.6 23 30% 30.27 0.0
09 09:15 W 8 10.00 Partly Cloudy SCT100 53.6 24.8 33% 30.27 0.0
09 08:55 Calm 10.00 Partly Cloudy SCT110 50 26.6 40% 30.28 0.0
09 08:35 Calm 10.00 Overcast OVC110 46.4 28.4 50% 30.27 0.0
09 08:15 Calm 10.00 Overcast OVC110 44.6 26.6 49% 30.27 0.0
09 07:55 Calm 10.00 Mostly Cloudy BKN110 44.6 26.6 49% 30.27 0.0
09 07:15 Calm 10.00 Fair CLR 41 26.6 57% 30.26 0.0
09 06:55 SE 5 10.00 Fair CLR 37.4 26.6 65% 34 30.26 0.0
09 06:35 SE 3 10.00 Fair CLR 39.2 26.6 61% 30.25 0.0
09 06:15 Calm 10.00 Fair CLR 37.4 26.6 65% 30.24 0.0
09 05:55 Calm 10.00 Fair CLR 39.2 26.6 61% 30.24 0.0
09 05:35 SE 5 10.00 Fair CLR 37.4 26.6 65% 34 30.24 0.0
09 05:15 SE 6 10.00 Fair CLR 41 26.6 57% 38 30.24 0.0
09 04:55 SE 8 10.00 Fair CLR 39.2 26.6 61% 34 30.23 0.0
09 04:35 SE 7 10.00 Fair CLR 39.2 26.6 61% 35 30.24 0.0
09 04:15 SE 5 10.00 Fair CLR 39.2 26.6 61% 36 30.24 0.0
09 03:35 SE 5 10.00 Fair CLR 39.2 26.6 61% 36 30.24 0.0
09 03:15 SE 6 10.00 Fair CLR 39.2 26.6 61% 36 30.23 0.0
09 02:55 SE 6 10.00 Fair CLR 41 26.6 57% 38 30.23 0.0
09 02:35 SE 5 10.00 Fair CLR 41 26.6 57% 38 30.23 0.0
09 02:15 SE 6 10.00 Fair CLR 41 26.6 57% 38 30.23 0.0
09 01:55 SE 6 10.00 Fair CLR 41 26.6 57% 38 30.24 0.0
09 01:35 SE 3 10.00 Fair CLR 42.8 26.6 53% 30.24 0.0
09 01:15 SE 3 10.00 Fair CLR 42.8 26.6 53% 30.24 0.0
09 00:55 SE 5 10.00 Fair CLR 42.8 26.6 53% 41 30.24 0.0
09 00:35 SE 7 10.00 Fair CLR 42.8 26.6 53% 39 30.25 0.0
09 00:15 SE 7 10.00 Fair CLR 44.6 26.6 49% 41 30.25 0.0
08 23:55 SE 6 10.00 Fair CLR 44.6 26.6 49% 42 30.25 0.0
08 23:35 SE 6 10.00 Fair CLR 44.6 26.6 49% 42 30.25 0.0
08 23:15 SE 7 10.00 Fair CLR 46.4 26.6 46% 43 30.25 0.0
08 22:55 SE 8 10.00 Fair CLR 46.4 26.6 46% 43 30.25 0.0
08 22:35 SE 8 10.00 Fair CLR 46.4 26.6 46% 43 30.25 0.0
08 22:15 SE 8 10.00 Fair CLR 48.2 26.6 43% 45 30.25 0.0
08 21:55 Calm 10.00 Fair CLR 50 24.8 37% 30.25 0.0
08 21:35 Calm 10.00 Fair CLR 51.8 23 32% 30.24 0.0
08 21:15 SW 3 10.00 Fair CLR 51.8 23 32% 30.23 0.0
08 20:55 W 5 10.00 Fair CLR 53.6 23 30% 30.23 0.0
08 20:35 W 7 10.00 Fair CLR 53.6 23 30% 30.22 0.0
08 20:15 W 8 10.00 Fair CLR 55.4 23 28% 30.21 0.0
08 19:55 W 12 10.00 Fair CLR 55.4 23 28% 30.2 0.0
08 19:35 W 5 10.00 Fair CLR 57.2 23 27% 30.2 0.0
08 19:15 NW 8 10.00 Fair CLR 57.2 23 27% 30.2 0.0
08 18:55 W 10 G 16 10.00 Fair CLR 59 23 25% 30.2 0.0
08 18:35 W 10 G 16 10.00 Fair CLR 59 23 25% 30.2 0.0
08 18:15 W 12 G 20 10.00 Fair CLR 59 23 25% 30.2 0.0
08 17:55 W 9 G 22 10.00 Partly Cloudy SCT090 59 23 25% 30.2 0.0
08 17:35 W 13 10.00 Fair CLR 59 24.8 27% 30.2 0.0
08 17:15 W 12 G 18 10.00 Partly Cloudy SCT090 60.8 24.8 25% 30.19 0.0
08 16:55 NW 9 G 22 10.00 Partly Cloudy SCT090 60.8 23 23% 30.19 0.0
08 16:35 W 15 G 23 10.00 Partly Cloudy SCT090 60.8 23 23% 30.2 0.0
08 16:15 SW 8 G 17 10.00 Partly Cloudy SCT090 60.8 23 23% 30.2 0.0
08 15:55 N 7 G 18 10.00 Partly Cloudy SCT090 59 23 25% 30.2 0.0
08 15:35 W 15 G 20 10.00 Partly Cloudy SCT090 60.8 23 23% 30.21 0.0
08 15:15 W 12 G 23 10.00 Fair CLR 59 23 25% 30.21 0.0
08 14:55 W 13 G 22 10.00 Fair CLR 60.8 24.8 25% 30.22 0.0
08 14:35 W 12 G 20 10.00 Partly Cloudy SCT085 60.8 24.8 25% 30.22 0.0
08 14:15 W 13 G 17 10.00 Partly Cloudy SCT085 59 26.6 29% 30.22 0.0
08 13:55 SW 7 G 20 10.00 Fair CLR 59 26.6 29% 30.22 0.0
08 13:35 W 10 10.00 Partly Cloudy SCT080 57.2 26.6 31% 30.22 0.0
08 13:15 W 14 G 20 10.00 Partly Cloudy SCT080 59 26.6 29% 30.22 0.0
08 12:55 W 13 G 18 10.00 Fair CLR 59 26.6 29% 30.22 0.0
08 12:35 W 14 G 21 10.00 Partly Cloudy SCT080 57.2 26.6 31% 30.22 0.0
08 12:15 W 9 G 20 10.00 Fair CLR 55.4 26.6 33% 30.22 0.0
08 11:55 W 17 G 22 10.00 Fair CLR 55.4 26.6 33% 30.23 0.0
08 11:35 W 15 G 25 10.00 Fair CLR 55.4 26.6 33% 30.24 0.0
08 11:15 W 22 G 31 10.00 Fair and Breezy CLR 55.4 26.6 33% 30.23 0.0
08 10:55 W 13 G 17 10.00 Fair CLR 53.6 26.6 35% 30.24 0.0
08 10:35 W 17 G 28 10.00 Partly Cloudy SCT075 53.6 24.8 33% 30.25 0.0
08 10:15 W 16 G 25 10.00 Partly Cloudy SCT070 53.6 26.6 35% 30.24 0.0
08 09:55 W 12 G 24 10.00 Fair CLR 53.6 26.6 35% 30.24 0.0
08 09:35 W 12 G 18 10.00 Fair CLR 51.8 26.6 38% 30.24 0.0
08 09:15 W 9 10.00 Fair CLR 51.8 26.6 38% 30.24 0.0
08 08:55 W 5 10.00 Fair CLR 50 26.6 40% 49 30.25 0.0
08 08:35 Calm 10.00 Fair CLR 46.4 28.4 50% 30.25 0.0
08 08:15 Calm 10.00 Partly Cloudy SCT080 42.8 28.4 57% 30.25 0.0
08 07:55 Calm 10.00 Fair CLR 41 28.4 61% 30.25 0.0
08 07:35 Calm 10.00 Fair CLR 39.2 28.4 65% 30.25 0.0
08 07:15 Calm 10.00 Partly Cloudy SCT070 37.4 26.6 65% 30.24 0.0
08 06:55 SE 3 10.00 Partly Cloudy SCT070 35.6 26.6 70% 30.24 0.0
08 06:35 SE 5 10.00 Partly Cloudy SCT070 35.6 26.6 70% 32 30.23 0.0
08 06:15 SE 5 10.00 Partly Cloudy SCT070 35.6 26.6 70% 32 30.23 0.0
08 05:55 S 5 10.00 Partly Cloudy SCT070 35.6 26.6 70% 32 30.23 0.0
08 05:35 SE 7 10.00 Fair CLR 37.4 26.6 65% 33 30.22 0.0
08 05:15 SE 5 10.00 Fair CLR 37.4 26.6 65% 34 30.23 0.0
08 04:55 SE 5 10.00 Fair CLR 37.4 28.4 70% 34 30.23 0.0
08 04:35 SE 5 10.00 Fair CLR 37.4 26.6 65% 34 30.23 0.0
08 04:15 SE 7 10.00 Fair CLR 37.4 26.6 65% 33 30.23 0.0
08 03:55 SE 5 10.00 Fair CLR 37.4 26.6 65% 34 30.22 0.0
08 03:35 SE 5 10.00 Fair CLR 37.4 26.6 65% 34 30.22 0.0
08 03:15 Calm 10.00 Fair CLR 37.4 26.6 65% 30.23 0.0
08 02:55 SE 6 10.00 Fair CLR 39.2 28.4 65% 36 30.23 0.0
08 02:35 Calm 10.00 Partly Cloudy SCT075 39.2 26.6 61% 30.23 0.0
08 02:15 SE 3 10.00 Mostly Cloudy SCT075 BKN090 37.4 28.4 70% 30.23 0.0
08 01:55 Calm 10.00 Overcast OVC090 39.2 28.4 65% 30.23 0.0
08 01:35 Calm 10.00 Overcast OVC100 39.2 28.4 65% 30.24 0.0
08 01:15 SE 5 10.00 Overcast OVC100 39.2 28.4 65% 36 30.24 0.0
08 00:55 SE 5 10.00 Mostly Cloudy BKN100 39.2 26.6 61% 36 30.24 0.0
08 00:35 SE 3 10.00 Mostly Cloudy BKN100 39.2 26.6 61% 30.24 0.0
08 00:15 SE 3 10.00 Overcast SCT080 OVC100 41 26.6 57% 30.24 0.0
07 23:55 SE 5 10.00 Overcast OVC110 41 26.6 57% 38 30.24 0.0
07 23:35 SE 6 10.00 Mostly Cloudy BKN110 41 26.6 57% 38 30.24 0.0
07 23:15 SE 7 10.00 Fair CLR 41 26.6 57% 37 30.24 0.0
07 22:55 SE 3 10.00 Fair CLR 42.8 26.6 53% 30.24 0.0
07 22:35 SE 7 10.00 Fair CLR 42.8 28.4 57% 39 30.24 0.0
07 22:15 S 6 10.00 Partly Cloudy SCT095 44.6 26.6 49% 42 30.25 0.0
07 21:55 SE 6 10.00 Partly Cloudy SCT095 44.6 26.6 49% 42 30.24 0.0
07 21:35 Calm 10.00 Mostly Cloudy BKN095 46.4 26.6 46% 30.24 0.0
07 21:15 S 3 10.00 Overcast OVC095 48.2 26.6 43% 30.23 0.0
07 20:55 W 3 10.00 Mostly Cloudy BKN095 48.2 23 37% 30.23 0.0
07 20:35 NW 6 10.00 Mostly Cloudy BKN085 48.2 24.8 40% 46 30.22 0.0
07 20:15 NW 6 10.00 Partly Cloudy SCT085 50 24.8 37% 48 30.22 0.0
07 19:55 W 8 10.00 Partly Cloudy SCT075 SCT085 50 24.8 37% 47 30.21 0.0
07 19:35 W 10 G 16 10.00 Mostly Cloudy BKN075 BKN085 51.8 24.8 35% 30.21 0.0
07 19:15 W 8 10.00 Overcast SCT075 OVC090 51.8 26.6 38% 30.2 0.0
07 18:55 NW 5 10.00 Partly Cloudy SCT090 50 26.6 40% 49 30.2 0.0
07 18:35 Calm 10.00 Partly Cloudy SCT090 50 28.4 43% 30.2 0.0
07 18:15 Calm 10.00 Mostly Cloudy BKN090 50 28.4 43% 30.2 0.0
07 17:55 N 5 10.00 Overcast SCT075 OVC090 51.8 26.6 38% 30.21 0.0
07 17:35 N 5 10.00 Overcast OVC090 51.8 26.6 38% 30.2 0.0
07 17:15 Calm 10.00 Overcast SCT075 OVC090 51.8 28.4 41% 30.2 0.0
07 16:55 N 3 10.00 Mostly Cloudy BKN090 51.8 26.6 38% 30.2 0.0
07 16:35 NW 7 10.00 Partly Cloudy SCT080 SCT090 51.8 24.8 35% 30.2 0.0
07 16:15 N 6 10.00 Partly Cloudy SCT080 55.4 26.6 33% 30.2 0.0
07 15:55 Calm 10.00 Partly Cloudy SCT080 53.6 26.6 35% 30.2 0.0
07 15:35 Calm 10.00 Partly Cloudy SCT080 53.6 26.6 35% 30.21 0.0
07 15:15 N 3 10.00 Mostly Cloudy BKN080 53.6 24.8 33% 30.22 0.0
07 14:55 Calm 10.00 Mostly Cloudy BKN080 53.6 23 30% 30.23 0.0
07 14:35 Calm 10.00 Partly Cloudy SCT080 53.6 23 30% 30.24 0.0
07 14:15 N 5 10.00 Fair CLR 53.6 23 30% 30.24 0.0
07 13:55 NW 3 10.00 Fair CLR 51.8 21.2 30% 30.24 0.0
07 13:35 SW 5 10.00 Fair CLR 51.8 19.4 28% 30.25 0.0
07 13:15 W 8 10.00 Fair CLR 51.8 21.2 30% 30.26 0.0
07 12:55 W 6 10.00 Fair CLR 50 19.4 30% 48 30.26 0.0
07 12:35 NW 3 10.00 Fair CLR 50 19.4 30% 30.26 0.0
07 12:15 SW 6 10.00 Fair CLR 48.2 17.6 29% 46 30.27 0.0
07 11:55 Calm 10.00 Fair CLR 46.4 14 27% 30.28 0.0
07 11:35 S 3 10.00 Fair CLR 46.4 12.2 25% 30.28 0.0
07 11:15 Calm 10.00 Fair CLR 46.4 12.2 25% 30.28 0.0
07 10:55 Calm 10.00 Fair CLR 44.6 12.2 27% 30.29 0.0
07 10:35 Calm 10.00 Fair CLR 42.8 14 31% 30.3 0.0
07 10:15 Calm 10.00 Fair CLR 41 10.4 28% 30.3 0.0
07 09:55 Calm 10.00 Fair CLR 41 14 33% 30.3 0.0
07 09:35 Calm 10.00 Fair CLR 39.2 14 36% 30.3 0.0
07 09:15 Calm 10.00 Fair CLR 35.6 12.2 38% 30.31 0.0
07 08:55 Calm 10.00 Fair CLR 33.8 10.4 38% 30.31 0.0
07 08:35 Calm 10.00 Fair CLR 32 12.2 44% 30.31 0.0
07 08:15 Calm 10.00 Fair CLR 32 10.4 40% 30.31 0.0
07 07:55 Calm 10.00 Fair CLR 30.2 12.2 47% 30.3 0.0
07 07:35 E 3 10.00 Fair CLR 28.4 14 55% 30.3 0.0
07 07:15 E 5 10.00 Fair CLR 26.6 14 59% 22 30.3 0.0
07 06:55 S 7 10.00 Fair CLR 24.8 14 63% 18 30.29 0.0
07 06:35 SE 8 10.00 Fair CLR 23 14 68% 15 30.29 0.0
07 06:15 SE 3 10.00 Fair CLR 24.8 14 63% 30.29 0.0
07 05:55 SE 6 10.00 Fair CLR 24.8 14 63% 19 30.28 0.0
07 05:35 SE 5 10.00 Fair CLR 26.6 14 59% 22 30.27 0.0
07 05:15 SE 6 10.00 Fair CLR 24.8 15.8 69% 19 30.28 0.0
07 04:55 Calm 10.00 Fair CLR 24.8 15.8 69% 30.29 0.0
07 04:35 SE 7 10.00 Fair CLR 24.8 15.8 69% 18 30.28 0.0
07 04:15 SE 5 10.00 Fair CLR 24.8 17.6 74% 20 30.29 0.0
07 03:55 SE 6 10.00 Fair CLR 26.6 17.6 69% 21 30.29 0.0
07 03:35 SE 7 10.00 Fair CLR 26.6 17.6 69% 20 30.29 0.0
07 03:15 SE 7 10.00 Fair CLR 26.6 17.6 69% 20 30.29 0.0
07 02:55 SE 5 10.00 Fair CLR 26.6 17.6 69% 22 30.29 0.0
07 02:35 E 3 10.00 Fair CLR 26.6 19.4 74% 30.3 0.0
07 02:15 SE 6 10.00 Fair CLR 26.6 19.4 74% 21 30.29 0.0
07 01:55 SE 3 10.00 Fair CLR 26.6 17.6 69% 30.29 0.0
07 01:35 Calm 10.00 Fair CLR 28.4 19.4 69% 30.3 0.0
07 01:15 SE 5 10.00 Fair CLR 28.4 19.4 69% 24 30.29 0.0
07 00:55 E 3 10.00 Fair CLR 28.4 19.4 69% 30.29 0.0
07 00:35 SE 3 10.00 Fair CLR 28.4 17.6 64% 30.3 0.0
07 00:15 Calm 10.00 Fair CLR 28.4 19.4 69% 30.3 0.0
06 23:55 Calm 10.00 Fair CLR 28.4 19.4 69% 30.31 0.0
06 23:35 Calm 10.00 Fair CLR 28.4 19.4 69% 30.29 0.0
06 23:15 Calm 10.00 Fair CLR 28.4 19.4 69% 30.29 0.0
06 22:55 Calm 10.00 Fair CLR 30.2 19.4 64% 30.29 0.0
06 22:35 Calm 10.00 Fair CLR 30.2 19.4 64% 30.27 0.0
06 22:15 Calm 10.00 Fair CLR 30.2 19.4 64% 30.27 0.0
06 21:55 Calm 10.00 Fair CLR 30.2 19.4 64% 30.26 0.0
06 21:15 Calm 10.00 Fair CLR 32 19.4 60% 30.25 0.0
06 20:55 Calm 10.00 Fair CLR 32 17.6 55% 30.24 0.0
06 20:35 Calm 10.00 Fair CLR 32 17.6 55% 30.23 0.0
06 20:15 Calm 10.00 Fair CLR 32 17.6 55% 30.22 0.0
06 19:55 Calm 10.00 Fair CLR 33.8 17.6 51% 30.21 0.0
06 19:35 Calm 10.00 Fair CLR 33.8 19.4 56% 30.2 0.0
06 19:15 N 3 10.00 Fair CLR 35.6 19.4 52% 30.2 0.0
06 18:55 Calm 10.00 Partly Cloudy SCT050 35.6 19.4 52% 30.19 0.0
06 18:35 NE 6 10.00 Partly Cloudy SCT050 35.6 19.4 52% 31 30.18 0.0
06 18:15 Calm 10.00 Fair CLR 33.8 19.4 56% 30.18 0.0
06 17:55 N 3 10.00 Partly Cloudy SCT047 33.8 21.2 60% 30.17 0.0
06 17:35 N 5 10.00 Mostly Cloudy BKN049 BKN060 37.4 24.8 60% 34 30.16 0.0
06 16:55 W 10 G 25 10.00 Overcast BKN047 OVC055 35.6 21.2 56% 29 30.14 0.0
06 16:35 W 9 G 18 10.00 Mostly Cloudy BKN050 35.6 21.2 56% 29 30.14 0.0
06 16:15 W 15 G 26 10.00 Mostly Cloudy SCT044 BKN050 35.6 23 60% 27 30.14 0.0
06 15:35 NW 7 G 16 10.00 Overcast SCT019 BKN033 OVC060 33.8 26.6 75% 28 30.14 0.0
06 15:15 W 7 10.00 Mostly Cloudy SCT017 SCT030 BKN035 33.8 28.4 81% 28 30.13 0.0
06 14:55 W 15 G 22 10.00 Mostly Cloudy SCT030 BKN038 BKN048 33.8 28.4 81% 25 30.12 0.0
06 14:35 W 16 10.00 Mostly Cloudy SCT029 SCT035 BKN041 33.8 26.6 75% 24 30.11 0.0
06 14:15 W 12 G 22 10.00 Mostly Cloudy SCT029 SCT036 BKN042 32 28.4 87% 24 30.11 0.0
06 13:55 W 14 G 18 10.00 Overcast SCT029 SCT035 OVC042 32 26.6 80% 23 30.1 0.0
06 13:35 W 8 10.00 Mostly Cloudy SCT028 BKN042 BKN060 32 26.6 80% 25 30.1 0.0
06 13:15 W 5 G 21 3.00 Light Snow BKN026 BKN033 OVC039 32 24.8 75% 28 30.1 0.0
06 12:55 W 8 G 18 1.25 Light Snow SCT005 BKN022 OVC035 30.2 28.4 93% 23 30.09 0.0
06 12:35 W 13 1.00 Light Snow SCT003 BKN014 OVC022 32 30.2 93% 23 30.08 0.0
06 12:15 W 16 10.00 Light Rain SCT007 BKN019 OVC029 32 30.2 93% 22 30.08 0.0
Date Time (mdt) Wind (mph) Vis. (mi.) Weather Sky Cond. Air Dwpt Max. Min. Relative Humidity Wind Chill (°F) Heat Index (°F) altimeter (in) sea level (mb) 1 hr 3 hr 6 hr
6 hour
Temperature (ºF) Pressure Precipitation (in)